Time;durP1;ratioP1;P1;durP2;ratioP2;P2;SDS_P1;SDS_P2;PMS_P1;PMS_P2;Temp;Humidity;BMP_temperature;BMP_pressure;BME280_temperature;BME280_humidity;BME280_pressure;Samples;Min_cycle;Max_cycle;Signal;HPM_P1;HPM_P2
2021/06/30 00:00:10;;;;;;;1.20;0.75;;;23.50;99.90;;;;;;6209534;23;20199;-76
2021/06/30 00:02:39;;;;;;;0.93;0.70;;;23.40;99.90;;;;;;6208645;23;20179;-75
2021/06/30 00:05:08;;;;;;;0.88;0.82;;;23.40;99.90;;;;;;6216688;23;20198;-76
2021/06/30 00:07:35;;;;;;;0.80;0.80;;;23.40;99.90;;;;;;6207468;23;20171;-76
2021/06/30 00:10:04;;;;;;;1.02;0.90;;;23.40;99.90;;;;;;6207091;23;20206;-74
2021/06/30 00:12:31;;;;;;;1.13;1.00;;;23.40;99.90;;;;;;6207526;23;20181;-75
2021/06/30 00:14:58;;;;;;;0.85;0.85;;;23.40;99.90;;;;;;6208966;23;20203;-75
2021/06/30 00:17:25;;;;;;;1.02;0.98;;;23.40;99.90;;;;;;6208456;23;20182;-76
2021/06/30 00:19:54;;;;;;;1.20;0.80;;;23.40;99.90;;;;;;6208197;23;20215;-75
2021/06/30 00:22:21;;;;;;;1.33;0.80;;;23.30;99.90;;;;;;6220857;23;20174;-76
2021/06/30 00:24:48;;;;;;;0.80;0.80;;;23.30;99.90;;;;;;6222737;23;20213;-75
2021/06/30 00:27:15;;;;;;;1.02;0.90;;;23.20;99.90;;;;;;6213521;23;20171;-74
2021/06/30 00:29:42;;;;;;;1.75;1.02;;;23.20;99.90;;;;;;6209921;23;20524;-76
2021/06/30 00:32:09;;;;;;;1.25;0.95;;;23.20;99.90;;;;;;6210110;23;20171;-75
2021/06/30 00:34:36;;;;;;;1.52;1.10;;;23.20;99.90;;;;;;6208019;23;20235;-76
2021/06/30 00:37:05;;;;;;;1.55;1.20;;;23.10;99.90;;;;;;6208667;23;20549;-75
2021/06/30 00:39:32;;;;;;;1.17;1.05;;;23.00;99.90;;;;;;6207472;23;20203;-75
2021/06/30 00:41:59;;;;;;;0.88;0.80;;;22.90;99.90;;;;;;6208129;23;20182;-75
2021/06/30 00:44:26;;;;;;;1.20;1.10;;;22.70;99.90;;;;;;6208567;23;20210;-76
2021/06/30 00:46:53;;;;;;;1.33;0.75;;;22.60;99.90;;;;;;6209281;23;20175;-73
2021/06/30 00:49:20;;;;;;;1.38;1.05;;;22.60;99.90;;;;;;6208147;23;20674;-75
2021/06/30 00:51:47;;;;;;;1.65;1.08;;;22.60;99.90;;;;;;6209139;23;20178;-75
2021/06/30 00:54:16;;;;;;;1.35;0.90;;;22.50;99.90;;;;;;6214217;23;20194;-75
2021/06/30 00:56:43;;;;;;;1.25;0.85;;;22.60;99.90;;;;;;6221323;23;20569;-75
2021/06/30 00:59:12;;;;;;;0.93;0.93;;;22.70;99.90;;;;;;6208715;23;20202;-76
2021/06/30 01:01:40;;;;;;;1.60;0.88;;;22.70;99.90;;;;;;6210213;23;20631;-75
2021/06/30 01:04:07;;;;;;;0.95;0.90;;;22.70;99.90;;;;;;6208315;23;20203;-75
2021/06/30 01:06:35;;;;;;;1.20;0.98;;;22.80;99.90;;;;;;6210387;23;20179;-76
2021/06/30 01:09:04;;;;;;;1.48;0.80;;;22.70;99.90;;;;;;6219494;23;20213;-76
2021/06/30 01:11:32;;;;;;;1.13;1.00;;;22.80;99.90;;;;;;6222013;23;20179;-75
2021/06/30 01:14:00;;;;;;;1.45;1.08;;;22.70;99.90;;;;;;6210555;23;20214;-76
2021/06/30 01:16:27;;;;;;;1.10;1.00;;;22.60;99.90;;;;;;6210864;23;20202;-76
2021/06/30 01:18:54;;;;;;;1.50;1.10;;;22.60;99.90;;;;;;6211872;23;20198;-76
2021/06/30 01:21:21;;;;;;;1.20;1.10;;;22.50;99.90;;;;;;6212963;23;20189;-75
2021/06/30 01:23:50;;;;;;;2.50;1.42;;;22.40;99.90;;;;;;6212268;23;20198;-75
2021/06/30 01:26:18;;;;;;;1.05;0.90;;;22.30;99.90;;;;;;6213559;23;20175;-76
2021/06/30 01:28:45;;;;;;;1.05;0.98;;;22.20;99.90;;;;;;6213080;23;20598;-76
2021/06/30 01:31:12;;;;;;;3.05;1.20;;;22.10;99.90;;;;;;6211475;23;20182;-76
2021/06/30 01:33:40;;;;;;;3.67;1.08;;;22.10;99.90;;;;;;6212526;23;20171;-76
2021/06/30 01:36:07;;;;;;;1.63;1.17;;;22.10;99.90;;;;;;6211964;23;20178;-77
2021/06/30 01:38:34;;;;;;;1.35;1.13;;;22.10;99.90;;;;;;6213104;23;20191;-75
2021/06/30 01:41:03;;;;;;;2.22;1.30;;;22.10;99.90;;;;;;6211973;23;20182;-76
2021/06/30 01:43:30;;;;;;;1.08;1.00;;;22.10;99.90;;;;;;6210908;23;20182;-76
2021/06/30 01:45:58;;;;;;;0.93;0.93;;;22.00;99.90;;;;;;6225168;23;20186;-76
2021/06/30 01:48:25;;;;;;;1.05;0.95;;;22.00;99.90;;;;;;6212168;23;20202;-76
2021/06/30 01:50:54;;;;;;;2.10;1.02;;;22.00;99.90;;;;;;6209898;23;20218;-76
2021/06/30 01:53:21;;;;;;;1.55;1.23;;;22.00;99.90;;;;;;6210954;23;20185;-76
2021/06/30 01:55:49;;;;;;;3.17;1.20;;;21.90;99.90;;;;;;6220141;23;20187;-78
2021/06/30 01:58:19;;;;;;;1.05;0.95;;;21.90;99.90;;;;;;6228932;23;20698;-76
2021/06/30 02:00:49;;;;;;;0.95;0.95;;;21.90;99.90;;;;;;6213656;23;20216;-77
2021/06/30 02:03:17;;;;;;;2.78;1.23;;;21.90;99.90;;;;;;6209936;23;20159;-77
2021/06/30 02:05:44;;;;;;;2.08;1.13;;;21.90;99.90;;;;;;6209938;23;20206;-76
2021/06/30 02:08:11;;;;;;;0.90;0.90;;;21.70;99.90;;;;;;6211962;23;20225;-76
2021/06/30 02:10:39;;;;;;;1.30;1.20;;;21.70;99.90;;;;;;6210798;23;20211;-76
2021/06/30 02:13:06;;;;;;;1.27;1.17;;;21.80;99.90;;;;;;6211335;23;20230;-76
2021/06/30 02:15:38;;;;;;;1.30;1.20;;;21.80;99.90;;;;;;6210930;23;20195;-76
2021/06/30 02:18:06;;;;;;;1.30;1.20;;;21.80;99.90;;;;;;6211403;23;20191;-76
2021/06/30 02:20:33;;;;;;;1.20;1.10;;;21.80;99.90;;;;;;6211451;23;20253;-76
2021/06/30 02:23:00;;;;;;;1.75;1.17;;;21.80;99.90;;;;;;6211101;23;20179;-76
2021/06/30 02:25:30;;;;;;;2.40;0.98;;;21.70;99.90;;;;;;6209376;23;20203;-75
2021/06/30 02:27:58;;;;;;;1.20;1.02;;;21.70;99.90;;;;;;6210948;23;20171;-76
2021/06/30 02:30:27;;;;;;;1.30;1.20;;;21.70;99.90;;;;;;6209027;23;20203;-75
2021/06/30 02:32:57;;;;;;;0.88;0.80;;;21.70;99.90;;;;;;6211971;23;20182;-76
2021/06/30 02:35:26;;;;;;;1.23;1.13;;;21.70;99.90;;;;;;6222042;23;20253;-75
2021/06/30 02:37:55;;;;;;;1.23;0.90;;;21.60;99.90;;;;;;6213501;23;20175;-75
2021/06/30 02:40:25;;;;;;;2.55;1.23;;;21.60;99.90;;;;;;6210860;23;20240;-76
2021/06/30 02:42:52;;;;;;;1.35;1.10;;;21.50;99.90;;;;;;6224035;23;20250;-77
2021/06/30 02:45:21;;;;;;;1.27;1.10;;;21.50;99.90;;;;;;6223883;23;20202;-75
2021/06/30 02:47:50;;;;;;;1.77;1.20;;;21.50;99.90;;;;;;6211333;23;20171;-75
2021/06/30 02:50:19;;;;;;;1.10;1.10;;;21.50;99.90;;;;;;6212320;23;20207;-75
2021/06/30 02:52:48;;;;;;;1.45;1.10;;;21.40;99.90;;;;;;6211052;23;20179;-76
2021/06/30 02:55:16;;;;;;;1.17;1.08;;;21.40;99.90;;;;;;6213131;23;20195;-76
2021/06/30 02:57:44;;;;;;;2.05;1.17;;;21.40;99.90;;;;;;6212100;23;20175;-76
2021/06/30 03:00:14;;;;;;;2.55;1.42;;;21.30;99.90;;;;;;6211186;23;20605;-75
2021/06/30 03:02:41;;;;;;;1.15;1.05;;;21.30;99.90;;;;;;6211940;23;20169;-76
2021/06/30 03:05:10;;;;;;;2.67;1.33;;;21.30;99.90;;;;;;6212206;23;20571;-76
2021/06/30 03:07:39;;;;;;;1.20;1.10;;;21.30;99.90;;;;;;6211785;23;20174;-76
2021/06/30 03:10:07;;;;;;;1.73;1.40;;;21.30;99.90;;;;;;6211008;23;20206;-76
2021/06/30 03:12:35;;;;;;;1.63;1.20;;;21.30;99.90;;;;;;6212148;23;20241;-75
2021/06/30 03:15:02;;;;;;;2.42;1.10;;;21.20;99.90;;;;;;6210416;23;20408;-76
2021/06/30 03:17:30;;;;;;;2.05;1.27;;;21.10;99.90;;;;;;6212552;23;20262;-76
2021/06/30 03:19:57;;;;;;;1.00;1.00;;;21.10;99.90;;;;;;6208995;23;20288;-75
2021/06/30 03:22:25;;;;;;;1.40;1.20;;;21.00;99.90;;;;;;6208978;23;20210;-75
2021/06/30 03:24:53;;;;;;;1.75;1.23;;;21.00;99.90;;;;;;6216723;23;20235;-75
2021/06/30 03:27:21;;;;;;;1.15;1.10;;;21.00;99.90;;;;;;6218174;23;20615;-75
2021/06/30 03:29:48;;;;;;;1.85;1.00;;;21.00;99.90;;;;;;6223372;23;20213;-76
2021/06/30 03:32:15;;;;;;;1.50;1.30;;;21.00;99.90;;;;;;6223800;23;20632;-75
2021/06/30 03:34:42;;;;;;;1.02;1.02;;;21.00;99.90;;;;;;6211283;23;20709;-75
2021/06/30 03:37:09;;;;;;;2.58;1.35;;;21.00;99.90;;;;;;6211737;23;20485;-74
2021/06/30 03:39:38;;;;;;;1.05;1.00;;;20.90;99.90;;;;;;6209731;23;20210;-75
2021/06/30 03:42:06;;;;;;;2.25;1.40;;;20.90;99.90;;;;;;6209914;23;20182;-75
2021/06/30 03:44:34;;;;;;;3.60;1.40;;;21.00;99.90;;;;;;6208133;23;20199;-76
2021/06/30 03:47:01;;;;;;;1.10;1.10;;;20.90;99.90;;;;;;6211186;23;20225;-75
2021/06/30 03:49:28;;;;;;;1.45;1.30;;;20.90;99.90;;;;;;6208936;23;20206;-76
2021/06/30 03:51:55;;;;;;;1.45;1.33;;;21.00;99.90;;;;;;6209920;23;20175;-75
2021/06/30 03:54:24;;;;;;;1.20;1.10;;;21.00;99.90;;;;;;6209083;23;20687;-75
2021/06/30 03:56:52;;;;;;;2.00;1.40;;;21.00;99.90;;;;;;6209208;23;20228;-76
2021/06/30 03:59:21;;;;;;;1.38;1.00;;;21.00;99.90;;;;;;6210596;23;20260;-75
2021/06/30 04:01:50;;;;;;;1.92;1.50;;;21.10;99.90;;;;;;6209548;23;20505;-75
2021/06/30 04:04:18;;;;;;;1.30;1.20;;;21.00;99.90;;;;;;6210508;23;20277;-75
2021/06/30 04:06:45;;;;;;;1.40;1.30;;;21.10;99.90;;;;;;6209649;23;20194;-75
2021/06/30 04:09:12;;;;;;;1.77;1.25;;;21.00;99.90;;;;;;6209197;23;20671;-75
2021/06/30 04:11:41;;;;;;;1.27;1.13;;;21.00;99.90;;;;;;6210213;23;20171;-75
2021/06/30 04:14:08;;;;;;;1.77;1.38;;;21.00;99.90;;;;;;6209941;23;20198;-77
2021/06/30 04:16:36;;;;;;;3.58;1.30;;;21.10;99.90;;;;;;6227677;23;20171;-76
2021/06/30 04:19:04;;;;;;;3.97;1.50;;;21.30;99.90;;;;;;6214655;23;20199;-76
2021/06/30 04:21:31;;;;;;;1.60;1.20;;;21.40;99.90;;;;;;6210556;23;20225;-75
2021/06/30 04:23:58;;;;;;;2.10;1.25;;;21.60;99.90;;;;;;6209439;23;20175;-76
2021/06/30 04:26:25;;;;;;;1.42;1.33;;;21.70;99.90;;;;;;6209348;23;20528;-75
2021/06/30 04:28:52;;;;;;;1.63;1.30;;;21.80;99.90;;;;;;6209532;23;20798;-75
2021/06/30 04:31:20;;;;;;;1.77;1.35;;;21.90;99.90;;;;;;6207219;23;20547;-75
2021/06/30 04:33:48;;;;;;;1.98;1.33;;;22.00;99.90;;;;;;6206656;23;20926;-76
2021/06/30 04:36:16;;;;;;;1.42;1.33;;;22.00;99.90;;;;;;6206362;23;20570;-76
2021/06/30 04:38:43;;;;;;;1.17;1.08;;;22.00;99.90;;;;;;6207762;23;20199;-76
2021/06/30 04:41:11;;;;;;;2.65;1.42;;;21.90;99.90;;;;;;6205835;23;20199;-75
2021/06/30 04:43:38;;;;;;;1.40;1.20;;;21.90;99.90;;;;;;6206813;23;20214;-76
2021/06/30 04:46:05;;;;;;;2.45;1.30;;;21.70;99.90;;;;;;6206348;23;20238;-74
2021/06/30 04:48:32;;;;;;;2.50;1.17;;;21.70;99.90;;;;;;6206416;23;20248;-76
2021/06/30 04:51:01;;;;;;;1.30;1.20;;;21.70;99.90;;;;;;6204820;23;20657;-76
2021/06/30 04:53:28;;;;;;;1.83;1.23;;;21.70;99.90;;;;;;6206116;23;20182;-76
2021/06/30 04:55:55;;;;;;;2.75;1.50;;;21.60;99.90;;;;;;6205385;23;20218;-76
2021/06/30 04:58:23;;;;;;;2.03;1.40;;;21.70;99.90;;;;;;6207400;23;20195;-75
2021/06/30 05:00:53;;;;;;;4.47;1.33;;;21.70;99.90;;;;;;6205267;23;20206;-76
2021/06/30 05:03:21;;;;;;;3.40;1.40;;;21.60;99.90;;;;;;6221381;23;20147;-76
2021/06/30 05:05:48;;;;;;;1.65;1.20;;;21.50;99.90;;;;;;6220662;23;20678;-75
2021/06/30 05:08:16;;;;;;;2.95;1.42;;;21.50;99.90;;;;;;6224032;23;20765;-75
2021/06/30 05:10:43;;;;;;;1.33;1.20;;;21.50;99.90;;;;;;6207237;23;20211;-76
2021/06/30 05:13:10;;;;;;;3.35;1.10;;;21.50;99.90;;;;;;6206690;23;20194;-76
2021/06/30 05:15:37;;;;;;;1.92;1.45;;;21.70;99.90;;;;;;6205625;23;20198;-75
2021/06/30 05:18:04;;;;;;;2.30;1.30;;;21.90;99.90;;;;;;6208151;23;20675;-76
2021/06/30 05:20:31;;;;;;;3.22;1.50;;;22.20;99.90;;;;;;6209173;23;20207;-75
2021/06/30 05:22:59;;;;;;;3.03;1.45;;;22.40;99.90;;;;;;6209776;23;20241;-76
2021/06/30 05:25:27;;;;;;;1.80;1.50;;;22.70;99.90;;;;;;6208511;23;20214;-75
2021/06/30 05:27:54;;;;;;;2.35;1.45;;;22.70;99.90;;;;;;6208803;23;20175;-76
2021/06/30 05:30:21;;;;;;;2.35;1.75;;;22.60;99.90;;;;;;6208591;23;20202;-76
2021/06/30 05:32:48;;;;;;;2.42;1.50;;;22.50;99.90;;;;;;6205790;23;20171;-74
2021/06/30 05:35:15;;;;;;;3.47;1.70;;;22.50;99.90;;;;;;6205578;23;20199;-75
2021/06/30 05:37:42;;;;;;;2.15;1.40;;;22.60;99.90;;;;;;6204159;23;20178;-75
2021/06/30 05:40:11;;;;;;;2.40;1.73;;;22.80;99.90;;;;;;6204481;23;20694;-74
2021/06/30 05:42:41;;;;;;;4.25;1.75;;;22.90;99.90;;;;;;6202701;23;20182;-75
2021/06/30 05:45:09;;;;;;;1.83;1.55;;;22.90;99.90;;;;;;6206783;23;20700;-74
2021/06/30 05:47:36;;;;;;;2.45;1.52;;;22.70;99.90;;;;;;6204404;23;20175;-75
2021/06/30 05:50:03;;;;;;;4.72;1.80;;;22.60;99.90;;;;;;6211706;23;20206;-74
2021/06/30 05:52:30;;;;;;;3.72;1.80;;;22.60;99.90;;;;;;6209762;23;20233;-74
2021/06/30 05:54:57;;;;;;;2.08;1.50;;;22.40;99.90;;;;;;6203365;23;20206;-74
2021/06/30 05:57:24;;;;;;;1.40;1.30;;;22.20;99.90;;;;;;6206754;23;20282;-74
2021/06/30 05:59:52;;;;;;;1.55;1.45;;;21.90;99.90;;;;;;6220661;23;20885;-75
2021/06/30 06:02:19;;;;;;;1.50;1.40;;;21.80;99.90;;;;;;6202627;23;20175;-75
2021/06/30 06:04:46;;;;;;;2.35;1.30;;;21.90;99.90;;;;;;6201501;23;20725;-75
2021/06/30 06:07:13;;;;;;;2.20;1.88;;;22.10;99.90;;;;;;6204718;23;20199;-75
2021/06/30 06:09:40;;;;;;;1.60;1.40;;;22.20;99.90;;;;;;6201972;23;20710;-74
2021/06/30 06:12:08;;;;;;;3.20;1.83;;;22.50;99.90;;;;;;6203662;23;20233;-75
2021/06/30 06:14:35;;;;;;;3.92;1.77;;;22.60;99.90;;;;;;6200860;23;21169;-75
2021/06/30 06:17:04;;;;;;;2.00;1.65;;;22.50;99.90;;;;;;6204490;23;20635;-72
2021/06/30 06:19:33;;;;;;;2.83;1.42;;;22.40;99.90;;;;;;6201903;23;20199;-74
2021/06/30 06:22:00;;;;;;;2.67;1.88;;;22.30;99.90;;;;;;6200657;23;20194;-74
2021/06/30 06:24:27;;;;;;;2.20;1.65;;;22.60;99.90;;;;;;6199881;23;20551;-75
2021/06/30 06:26:54;;;;;;;2.05;1.85;;;22.90;99.90;;;;;;6200040;23;20675;-74
2021/06/30 06:29:23;;;;;;;3.28;1.67;;;23.10;99.90;;;;;;6202196;23;20730;-76
2021/06/30 06:31:50;;;;;;;3.08;1.67;;;23.20;99.90;;;;;;6200036;23;20707;-75
2021/06/30 06:34:20;;;;;;;4.00;1.83;;;23.30;99.90;;;;;;6200550;23;20175;-75
2021/06/30 06:36:48;;;;;;;2.17;1.73;;;23.30;99.90;;;;;;6214317;23;20197;-74
2021/06/30 06:39:15;;;;;;;2.60;1.70;;;23.40;99.90;;;;;;6214835;23;20429;-75
2021/06/30 06:41:43;;;;;;;5.25;2.28;;;23.50;99.90;;;;;;6201506;23;20203;-75
2021/06/30 06:44:10;;;;;;;2.17;1.65;;;23.60;99.90;;;;;;6203209;23;20574;-75
2021/06/30 06:46:39;;;;;;;2.88;1.60;;;23.60;99.90;;;;;;6202470;23;20210;-74
2021/06/30 06:49:06;;;;;;;3.25;2.28;;;23.70;99.90;;;;;;6206293;23;20194;-74
2021/06/30 06:51:35;;;;;;;3.58;1.95;;;23.70;99.90;;;;;;6217353;23;20230;-75
2021/06/30 06:54:02;;;;;;;2.20;2.00;;;23.70;99.90;;;;;;6200462;23;20551;-75
2021/06/30 06:56:29;;;;;;;2.45;2.00;;;23.70;99.90;;;;;;6203063;23;20207;-75
2021/06/30 06:58:56;;;;;;;2.65;1.85;;;23.90;99.90;;;;;;6200690;23;20195;-75
2021/06/30 07:01:24;;;;;;;2.55;1.60;;;23.90;99.90;;;;;;6201867;23;20206;-75
2021/06/30 07:03:52;;;;;;;3.20;1.60;;;23.90;99.90;;;;;;6201197;23;20257;-76
2021/06/30 07:06:20;;;;;;;2.75;1.60;;;24.00;99.90;;;;;;6201735;23;20207;-76
2021/06/30 07:08:48;;;;;;;3.60;1.73;;;24.10;99.90;;;;;;6201265;23;20551;-76
2021/06/30 07:11:17;;;;;;;3.15;1.40;;;24.30;99.90;;;;;;6202481;23;20314;-75
2021/06/30 07:13:44;;;;;;;1.95;1.65;;;24.30;99.90;;;;;;6201929;23;20178;-76
2021/06/30 07:16:11;;;;;;;1.73;1.50;;;24.50;99.90;;;;;;6203452;23;20203;-76
2021/06/30 07:18:39;;;;;;;1.73;1.48;;;24.50;99.90;;;;;;6203594;23;20191;-76
2021/06/30 07:21:08;;;;;;;2.13;1.40;;;24.50;99.90;;;;;;6202591;23;20214;-76
2021/06/30 07:23:36;;;;;;;4.03;1.80;;;24.60;99.90;;;;;;6216610;23;20171;-76
2021/06/30 07:26:05;;;;;;;2.78;1.70;;;24.80;99.90;;;;;;6206596;23;20199;-76
2021/06/30 07:28:32;;;;;;;1.70;1.60;;;25.10;99.90;;;;;;6203656;23;20198;-76
2021/06/30 07:30:59;;;;;;;4.72;1.98;;;25.10;99.90;;;;;;6202517;23;20202;-76
2021/06/30 07:33:26;;;;;;;2.40;1.55;;;25.10;99.90;;;;;;6203410;23;20693;-74
2021/06/30 07:35:53;;;;;;;2.75;2.00;;;25.10;99.90;;;;;;6203426;23;20202;-76
2021/06/30 07:38:20;;;;;;;2.88;1.63;;;25.20;99.90;;;;;;6204607;23;20205;-76
2021/06/30 07:40:47;;;;;;;5.85;1.60;;;25.40;99.90;;;;;;6216508;23;20210;-76
2021/06/30 07:43:16;;;;;;;4.38;2.08;;;25.50;99.90;;;;;;6205237;23;20186;-76
2021/06/30 07:45:43;;;;;;;2.67;1.70;;;25.30;99.90;;;;;;6205335;23;20206;-77
2021/06/30 07:48:10;;;;;;;2.88;1.85;;;25.30;99.90;;;;;;6201353;23;20195;-77
2021/06/30 07:50:37;;;;;;;2.90;1.90;;;25.40;99.90;;;;;;6199381;23;20203;-75
2021/06/30 07:53:04;;;;;;;2.40;1.65;;;24.90;99.90;;;;;;6198407;23;20183;-76
2021/06/30 07:55:32;;;;;;;2.10;1.85;;;24.60;99.90;;;;;;6201944;23;20199;-75
2021/06/30 07:57:59;;;;;;;2.80;1.77;;;24.60;99.90;;;;;;6203322;23;21919;-78
2021/06/30 08:00:28;;;;;;;2.45;1.52;;;24.50;99.90;;;;;;6200154;23;20209;-78
2021/06/30 08:02:55;;;;;;;2.72;1.70;;;24.50;99.90;;;;;;6203254;23;20179;-78
2021/06/30 08:05:22;;;;;;;2.15;1.30;;;24.30;99.90;;;;;;6205190;23;20562;-77
2021/06/30 08:07:49;;;;;;;3.88;1.65;;;24.30;99.90;;;;;;6203914;23;20194;-78
2021/06/30 08:10:16;;;;;;;1.60;1.50;;;24.60;99.90;;;;;;6225417;23;20223;-78
2021/06/30 08:12:43;;;;;;;1.55;1.40;;;24.50;99.90;;;;;;6209405;23;20178;-79
2021/06/30 08:15:11;;;;;;;2.40;1.63;;;24.30;99.90;;;;;;6203671;23;20225;-77
2021/06/30 08:17:40;;;;;;;2.42;1.85;;;24.50;99.90;;;;;;6205418;23;20197;-77
2021/06/30 08:20:08;;;;;;;2.60;2.10;;;25.00;99.90;;;;;;6202519;23;20646;-76
2021/06/30 08:22:35;;;;;;;2.22;1.58;;;25.20;99.90;;;;;;6202000;23;20614;-76
2021/06/30 08:25:02;;;;;;;2.42;1.58;;;25.50;99.90;;;;;;6198767;23;20240;-77
2021/06/30 08:27:29;;;;;;;2.15;1.60;;;25.90;99.90;;;;;;6203777;23;20191;-76
2021/06/30 08:29:59;;;;;;;3.17;1.55;;;26.10;99.90;;;;;;6200596;23;20758;-75
2021/06/30 08:32:27;;;;;;;4.55;2.17;;;26.40;99.90;;;;;;6218760;23;20206;-77
2021/06/30 08:34:56;;;;;;;3.67;1.80;;;26.70;99.90;;;;;;6201242;23;20700;-76
2021/06/30 08:37:25;;;;;;;2.17;1.73;;;26.70;99.90;;;;;;6202430;23;20179;-77
2021/06/30 08:39:54;;;;;;;2.42;1.80;;;26.70;99.90;;;;;;6203414;23;20222;-76
2021/06/30 08:42:22;;;;;;;1.92;1.60;;;26.60;99.90;;;;;;6203518;23;20233;-76
2021/06/30 08:44:49;;;;;;;5.38;1.90;;;26.70;99.90;;;;;;6204139;23;20171;-75
2021/06/30 08:47:16;;;;;;;4.55;2.60;;;26.90;99.90;;;;;;6202093;23;20536;-76
2021/06/30 08:49:45;;;;;;;4.40;2.03;;;27.00;99.90;;;;;;6203574;23;20194;-76
2021/06/30 08:52:13;;;;;;;3.03;1.88;;;26.90;99.90;;;;;;6202500;23;20667;-76
2021/06/30 08:54:42;;;;;;;2.75;1.52;;;26.90;99.90;;;;;;6202722;23;20233;-77
2021/06/30 08:57:10;;;;;;;2.10;1.65;;;26.90;99.90;;;;;;6218034;23;20207;-76
2021/06/30 08:59:37;;;;;;;2.78;1.85;;;27.10;99.90;;;;;;6201242;23;20195;-77
2021/06/30 09:02:05;;;;;;;3.50;1.48;;;27.30;99.90;;;;;;6198152;23;20288;-75
2021/06/30 09:04:38;;;;;;;3.38;1.88;;;27.60;99.90;;;;;;6200578;23;20575;-76
2021/06/30 09:07:05;;;;;;;4.18;2.13;;;27.40;99.90;;;;;;6201211;23;20216;-77
2021/06/30 09:09:40;;;;;;;3.95;1.98;;;27.40;99.90;;;;;;6202047;23;20198;-77
2021/06/30 09:12:08;;;;;;;3.60;1.95;;;27.20;99.90;;;;;;6203545;23;20210;-76
2021/06/30 09:14:37;;;;;;;2.17;1.95;;;27.10;99.90;;;;;;6204179;23;20175;-76
2021/06/30 09:17:13;;;;;;;3.78;2.13;;;27.30;99.90;;;;;;6203554;23;20200;-77
2021/06/30 09:19:59;;;;;;;5.07;2.08;;;27.80;99.90;;;;;;6204151;23;20244;-77
2021/06/30 09:22:29;;;;;;;3.72;1.70;;;28.20;99.90;;;;;;6221082;23;20655;-77
2021/06/30 09:24:58;;;;;;;2.45;2.00;;;27.90;99.90;;;;;;6202485;23;20183;-76
2021/06/30 09:27:40;;;;;;;3.17;2.08;;;27.80;99.90;;;;;;6201794;23;20203;-76
2021/06/30 09:30:12;;;;;;;3.13;1.83;;;27.70;99.90;;;;;;6200238;23;20190;-77
2021/06/30 09:32:57;;;;;;;3.67;1.98;;;27.70;99.90;;;;;;6205831;23;20175;-77
2021/06/30 09:35:28;;;;;;;4.82;1.85;;;27.70;99.90;;;;;;6205719;23;20621;-76
2021/06/30 09:37:55;;;;;;;3.38;1.70;;;27.80;99.90;;;;;;6207839;23;20702;-76
2021/06/30 09:40:41;;;;;;;4.38;1.88;;;27.70;99.90;;;;;;6200504;23;20175;-76
2021/06/30 09:43:23;;;;;;;2.85;2.00;;;27.60;99.90;;;;;;6225173;23;20159;-76
2021/06/30 09:45:50;;;;;;;3.85;2.10;;;27.80;99.90;;;;;;6202014;23;20202;-76
2021/06/30 09:48:28;;;;;;;2.65;1.83;;;28.10;99.90;;;;;;6203381;23;20198;-75
2021/06/30 09:50:55;;;;;;;5.80;2.17;;;28.30;99.90;;;;;;6203137;23;20207;-75
2021/06/30 09:53:46;;;;;;;5.20;1.80;;;28.20;99.90;;;;;;6203383;23;20171;-75
2021/06/30 09:59:22;;;;;;;1.95;1.80;;;28.80;99.90;;;;;;5061708;27;20973;-75
2021/06/30 10:01:55;;;;;;;2.97;1.65;;;29.10;99.90;;;;;;5034310;28;20632;-73
2021/06/30 10:04:24;;;;;;;3.33;1.70;;;29.40;99.90;;;;;;5036444;28;20311;-75
2021/06/30 10:06:55;;;;;;;5.18;2.13;;;29.40;99.90;;;;;;5037636;28;20791;-75
2021/06/30 10:09:22;;;;;;;2.40;1.70;;;29.20;99.90;;;;;;5038336;28;20215;-74
2021/06/30 10:12:00;;;;;;;4.32;1.80;;;29.20;99.90;;;;;;5037272;28;20230;-76
2021/06/30 10:14:29;;;;;;;3.13;1.67;;;29.30;99.90;;;;;;5030801;28;20191;-77
2021/06/30 10:17:00;;;;;;;5.47;1.95;;;29.30;99.90;;;;;;5043314;28;20749;-74
2021/06/30 10:19:27;;;;;;;2.08;1.55;;;29.40;99.90;;;;;;5045958;28;20221;-75
2021/06/30 10:21:54;;;;;;;3.47;1.67;;;29.50;99.90;;;;;;5042401;28;20223;-76
2021/06/30 10:24:22;;;;;;;3.55;2.13;;;29.50;99.90;;;;;;5041574;28;20195;-76
2021/06/30 10:26:50;;;;;;;3.05;1.70;;;29.50;99.50;;;;;;5045876;28;20727;-75
2021/06/30 10:29:18;;;;;;;4.25;1.70;;;29.50;99.50;;;;;;5052277;28;20215;-76
2021/06/30 10:31:48;;;;;;;3.10;1.70;;;29.40;99.60;;;;;;5045530;28;20218;-76
2021/06/30 10:34:17;;;;;;;6.05;1.70;;;28.80;98.80;;;;;;5039722;28;20253;-76
2021/06/30 10:36:47;;;;;;;4.68;1.88;;;28.60;99.70;;;;;;5040082;28;20664;-77
2021/06/30 10:39:17;;;;;;;3.53;1.65;;;28.70;99.80;;;;;;5034130;28;20231;-75
2021/06/30 10:41:51;;;;;;;2.45;1.48;;;29.00;99.80;;;;;;5022716;28;20223;-76
2021/06/30 10:44:19;;;;;;;5.53;1.90;;;29.00;98.30;;;;;;5022433;28;20672;-76
2021/06/30 10:46:48;;;;;;;2.42;1.40;;;29.10;97.90;;;;;;5019972;28;20230;-76
2021/06/30 10:49:24;;;;;;;3.13;1.40;;;29.30;97.90;;;;;;5020553;28;20227;-77
2021/06/30 10:51:52;;;;;;;2.92;1.52;;;29.50;96.80;;;;;;5016114;28;20234;-76
2021/06/30 10:54:40;;;;;;;2.88;1.45;;;29.70;96.60;;;;;;5018784;28;20626;-76
2021/06/30 10:57:27;;;;;;;2.83;1.55;;;29.90;96.80;;;;;;5019807;28;20762;-77
2021/06/30 11:00:14;;;;;;;1.77;1.50;;;30.00;95.50;;;;;;5022934;28;20215;-76
2021/06/30 11:02:43;;;;;;;4.35;1.67;;;29.80;97.10;;;;;;5016672;28;20224;-77
2021/06/30 11:05:33;;;;;;;2.70;1.73;;;29.70;96.80;;;;;;5014245;28;20189;-76
2021/06/30 11:08:00;;;;;;;7.75;1.45;;;29.90;95.50;;;;;;5036856;28;20233;-76
2021/06/30 11:10:50;;;;;;;3.35;1.60;;;29.90;96.80;;;;;;5025174;28;20205;-75
2021/06/30 11:13:17;;;;;;;2.47;1.85;;;29.90;95.70;;;;;;5010578;28;20264;-74
2021/06/30 11:15:44;;;;;;;2.33;1.60;;;29.60;96.70;;;;;;5016231;28;20210;-76
2021/06/30 11:18:44;;;;;;;3.78;1.95;;;29.60;96.60;;;;;;5003890;28;20236;-76
2021/06/30 11:21:15;;;;;;;5.43;2.15;;;28.80;96.70;;;;;;5021528;28;20273;-77
2021/06/30 11:23:43;;;;;;;3.45;1.52;;;28.80;97.50;;;;;;5018866;28;20216;-75
2021/06/30 11:26:33;;;;;;;4.82;1.70;;;29.20;97.00;;;;;;5022978;28;20199;-76
2021/06/30 11:29:00;;;;;;;4.18;2.00;;;29.10;95.50;;;;;;5021177;28;20281;-76
2021/06/30 11:31:40;;;;;;;3.17;1.98;;;29.30;97.20;;;;;;5033271;28;20191;-77
2021/06/30 11:34:22;;;;;;;3.42;1.67;;;29.00;97.20;;;;;;5021819;28;20766;-77
2021/06/30 11:36:49;;;;;;;2.83;1.63;;;29.20;97.50;;;;;;5027130;28;20202;-76
2021/06/30 11:39:18;;;;;;;4.93;1.75;;;29.50;98.10;;;;;;5027713;28;20228;-77
2021/06/30 11:41:47;;;;;;;1.80;1.60;;;29.80;97.50;;;;;;5025479;28;20211;-77
2021/06/30 11:44:14;;;;;;;2.80;1.88;;;30.10;97.70;;;;;;5023112;28;20216;-77
2021/06/30 11:46:43;;;;;;;4.07;2.05;;;30.00;97.20;;;;;;5033117;28;20199;-76
2021/06/30 11:49:17;;;;;;;3.17;1.70;;;29.80;97.30;;;;;;5014868;28;20234;-77
2021/06/30 11:51:44;;;;;;;2.80;1.75;;;29.80;97.70;;;;;;5010185;28;20226;-77
2021/06/30 11:54:16;;;;;;;3.28;1.92;;;30.20;97.30;;;;;;5021901;28;20227;-76
2021/06/30 11:56:44;;;;;;;5.15;1.70;;;30.10;96.70;;;;;;5025965;28;20198;-77
2021/06/30 11:59:18;;;;;;;4.57;1.67;;;29.80;96.70;;;;;;5020342;28;20231;-76
2021/06/30 12:01:46;;;;;;;2.50;1.80;;;29.70;97.30;;;;;;5019043;28;20196;-75
2021/06/30 12:04:18;;;;;;;5.90;2.00;;;29.60;96.90;;;;;;5007685;28;21175;-76
2021/06/30 12:06:46;;;;;;;4.65;2.15;;;29.50;96.40;;;;;;5004132;28;20200;-76
2021/06/30 12:09:16;;;;;;;2.50;2.00;;;29.40;95.70;;;;;;4999731;28;20246;-77
2021/06/30 12:11:45;;;;;;;5.30;2.00;;;29.10;96.00;;;;;;5001046;28;20992;-77
2021/06/30 12:14:15;;;;;;;3.10;1.70;;;29.10;96.60;;;;;;5002752;28;20223;-77
2021/06/30 12:16:47;;;;;;;5.72;1.80;;;29.10;96.60;;;;;;5004520;28;21777;-77
2021/06/30 12:19:17;;;;;;;3.03;1.63;;;29.20;97.10;;;;;;5000855;28;20876;-77
2021/06/30 12:21:49;;;;;;;3.42;1.85;;;29.50;96.80;;;;;;5004897;28;20201;-77
2021/06/30 12:24:20;;;;;;;5.60;2.20;;;29.50;96.70;;;;;;5002658;28;20230;-77
2021/06/30 12:27:11;;;;;;;5.95;2.25;;;29.30;96.40;;;;;;5002241;28;20243;-77
2021/06/30 12:29:40;;;;;;;4.25;2.00;;;28.90;96.50;;;;;;4995730;28;20235;-77
2021/06/30 12:32:11;;;;;;;4.68;1.80;;;28.30;96.80;;;;;;5000743;28;20201;-76
2021/06/30 12:34:41;;;;;;;5.97;1.98;;;27.90;97.00;;;;;;5000223;28;20789;-77
2021/06/30 12:37:08;;;;;;;2.05;1.77;;;27.60;97.90;;;;;;5001064;28;20206;-74
2021/06/30 12:39:39;;;;;;;3.55;1.83;;;27.50;98.40;;;;;;4999590;28;20757;-77
2021/06/30 12:42:09;;;;;;;3.45;1.80;;;27.50;98.60;;;;;;5006407;28;20294;-76
2021/06/30 12:44:57;;;;;;;5.78;1.73;;;27.50;98.80;;;;;;5013971;28;20508;-77
2021/06/30 12:47:25;;;;;;;2.78;1.60;;;27.40;98.60;;;;;;5012489;28;20528;-77
2021/06/30 12:50:04;;;;;;;3.20;1.70;;;27.30;99.10;;;;;;5013098;28;20227;-77
2021/06/30 12:52:31;;;;;;;2.63;1.90;;;27.30;99.40;;;;;;5005572;28;20698;-76
2021/06/30 12:55:00;;;;;;;5.88;2.17;;;27.20;99.40;;;;;;5003530;28;20713;-76
2021/06/30 12:57:27;;;;;;;4.93;2.00;;;27.00;99.20;;;;;;5005919;28;20219;-77
2021/06/30 13:00:11;;;;;;;5.78;2.10;;;26.90;99.30;;;;;;5004944;28;20247;-77